Time;durP1;ratioP1;P1;durP2;ratioP2;P2;SDS_P1;SDS_P2;PMS_P1;PMS_P2;Temp;Humidity;BMP_temperature;BMP_pressure;BME280_temperature;BME280_humidity;BME280_pressure;Samples;Min_cycle;Max_cycle;Signal;HPM_P1;HPM_P2
2023/12/22 00:01:23;;;;;;;2.70;1.40;;;;;;;7.77;82.87;96680.16;5081002;28;20737;-71
2023/12/22 00:03:51;;;;;;;3.42;1.20;;;;;;;7.74;81.91;96683.28;5083010;28;20254;-70
2023/12/22 00:06:17;;;;;;;2.75;1.30;;;;;;;7.75;81.33;96683.06;5082475;28;20210;-71
2023/12/22 00:08:43;;;;;;;3.40;1.40;;;;;;;7.75;80.45;96660.69;5081051;28;20621;-70
2023/12/22 00:11:10;;;;;;;4.63;1.58;;;;;;;7.77;80.56;96668.53;5083472;28;20292;-71
2023/12/22 00:13:37;;;;;;;1.98;1.10;;;;;;;7.76;79.67;96662.34;5090427;28;20302;-71
2023/12/22 00:16:04;;;;;;;1.30;1.05;;;;;;;7.68;79.96;96655.34;5081064;28;20193;-71
2023/12/22 00:18:30;;;;;;;3.10;1.60;;;;;;;7.68;80.16;96665.28;5077626;28;20290;-71
2023/12/22 00:20:58;;;;;;;1.90;1.15;;;;;;;7.80;80.00;96679.69;5081688;28;20257;-71
2023/12/22 00:23:25;;;;;;;3.90;1.45;;;;;;;7.71;81.19;96670.25;5081963;28;20288;-70
2023/12/22 00:25:52;;;;;;;4.47;1.30;;;;;;;7.71;81.84;96678.31;5081179;28;20597;-70
2023/12/22 00:28:18;;;;;;;3.38;1.90;;;;;;;7.68;83.54;96689.53;5083670;28;20208;-71
2023/12/22 00:30:45;;;;;;;4.82;1.70;;;;;;;7.65;84.86;96735.72;5083649;28;20235;-71
2023/12/22 00:33:11;;;;;;;7.13;2.35;;;;;;;7.62;86.47;96736.97;5079954;28;20208;-71
2023/12/22 00:35:38;;;;;;;3.58;1.77;;;;;;;7.64;88.00;96734.06;5081454;28;20283;-71
2023/12/22 00:38:08;;;;;;;3.20;1.90;;;;;;;7.49;89.46;96745.13;5082778;28;20223;-71
2023/12/22 00:40:35;;;;;;;4.43;2.20;;;;;;;7.39;88.90;96752.84;5090098;28;20211;-70
2023/12/22 00:43:01;;;;;;;4.45;2.13;;;;;;;7.39;89.26;96775.19;5082423;28;20283;-70
2023/12/22 00:45:28;;;;;;;2.17;1.10;;;;;;;7.04;87.57;96758.56;5080732;28;20361;-70
2023/12/22 00:47:55;;;;;;;2.00;1.13;;;;;;;6.90;85.67;96764.16;5081693;28;20271;-71
2023/12/22 00:50:22;;;;;;;1.30;1.10;;;;;;;6.58;86.69;96793.59;5079823;28;20389;-71
2023/12/22 00:52:49;;;;;;;1.30;1.20;;;;;;;6.40;87.69;96778.09;5079810;28;20235;-71
2023/12/22 00:55:17;;;;;;;1.90;1.08;;;;;;;6.33;88.61;96789.88;5081578;28;20284;-71
2023/12/22 00:57:44;;;;;;;2.47;1.52;;;;;;;6.24;88.11;96799.97;5093466;27;20291;-70
2023/12/22 01:00:12;;;;;;;1.88;1.27;;;;;;;6.02;90.19;96788.59;5098008;27;20275;-71
2023/12/22 01:02:39;;;;;;;1.70;1.30;;;;;;;6.08;89.64;96784.28;5081863;28;20863;-70
2023/12/22 01:05:06;;;;;;;2.47;1.60;;;;;;;6.29;88.43;96778.72;5078489;28;20331;-71
2023/12/22 01:07:32;;;;;;;3.08;1.55;;;;;;;6.23;88.82;96762.59;5081767;28;20373;-71
2023/12/22 01:10:01;;;;;;;1.92;1.50;;;;;;;6.19;88.46;96748.72;5081496;28;20537;-70
2023/12/22 01:12:29;;;;;;;2.22;1.20;;;;;;;6.31;88.08;96743.56;5082136;28;21592;-71
2023/12/22 01:14:55;;;;;;;3.33;1.23;;;;;;;6.36;88.38;96760.72;5081013;28;20287;-71
2023/12/22 01:17:22;;;;;;;3.95;2.17;;;;;;;6.55;87.59;96750.16;5082392;28;20212;-70
2023/12/22 01:19:49;;;;;;;3.65;1.77;;;;;;;6.61;87.58;96733.22;5079489;28;20228;-71
2023/12/22 01:22:16;;;;;;;4.90;1.48;;;;;;;6.77;87.43;96731.94;5079366;28;20207;-70
2023/12/22 01:24:43;;;;;;;3.85;1.55;;;;;;;6.92;87.68;96745.97;5079763;28;20302;-70
2023/12/22 01:27:10;;;;;;;6.25;1.90;;;;;;;7.03;87.19;96740.75;5078769;28;20241;-71
2023/12/22 01:29:38;;;;;;;4.50;1.70;;;;;;;7.05;87.02;96751.31;5088709;28;20298;-71
2023/12/22 01:32:05;;;;;;;3.97;2.00;;;;;;;7.19;86.81;96738.63;5114957;27;20228;-70
2023/12/22 01:34:32;;;;;;;6.30;1.88;;;;;;;7.23;86.79;96748.75;5080109;28;20291;-70
2023/12/22 01:36:58;;;;;;;5.75;1.58;;;;;;;7.29;86.10;96752.47;5113419;27;20725;-71
2023/12/22 01:39:25;;;;;;;2.30;1.25;;;;;;;7.41;86.31;96754.28;5080666;28;20243;-71
2023/12/22 01:41:51;;;;;;;5.35;2.03;;;;;;;7.44;86.18;96754.91;5081285;28;20214;-72
2023/12/22 01:44:18;;;;;;;4.22;1.63;;;;;;;7.38;86.20;96751.19;5079724;28;20303;-71
2023/12/22 01:46:46;;;;;;;4.30;1.45;;;;;;;7.29;85.38;96765.91;5077628;28;20291;-71
2023/12/22 01:49:13;;;;;;;5.25;2.00;;;;;;;7.34;84.60;96766.94;5080669;28;20710;-71
2023/12/22 01:51:40;;;;;;;4.57;1.58;;;;;;;7.34;83.54;96747.28;5081486;28;20287;-71
2023/12/22 01:54:07;;;;;;;4.28;1.75;;;;;;;7.29;82.98;96758.66;5081809;28;20286;-71
2023/12/22 01:56:34;;;;;;;3.42;2.08;;;;;;;7.33;81.95;96757.22;5111075;27;20201;-71
2023/12/22 01:59:02;;;;;;;4.22;1.60;;;;;;;7.35;78.98;96771.28;5089269;28;20290;-71
2023/12/22 02:01:29;;;;;;;2.90;1.13;;;;;;;7.43;78.45;96769.38;5080894;28;20284;-71
2023/12/22 02:03:57;;;;;;;2.63;1.23;;;;;;;7.45;77.42;96761.94;5080348;28;20679;-71
2023/12/22 02:06:24;;;;;;;5.97;1.75;;;;;;;7.37;75.84;96755.75;5080065;28;20525;-71
2023/12/22 02:08:51;;;;;;;2.67;1.20;;;;;;;7.44;74.56;96769.19;5079208;28;20254;-71
2023/12/22 02:11:18;;;;;;;2.35;1.00;;;;;;;7.47;73.65;96766.06;5085515;28;20244;-71
2023/12/22 02:13:45;;;;;;;2.60;1.20;;;;;;;7.41;73.92;96780.38;5080504;28;20247;-71
2023/12/22 02:16:18;;;;;;;4.25;1.23;;;;;;;7.50;73.29;96765.59;5079260;28;20193;-71
2023/12/22 02:18:45;;;;;;;2.72;1.30;;;;;;;7.41;73.58;96770.44;5112037;27;20633;-71
2023/12/22 02:21:12;;;;;;;3.90;1.67;;;;;;;7.34;73.54;96779.56;5080313;28;20227;-70
2023/12/22 02:23:40;;;;;;;3.05;1.20;;;;;;;7.35;73.07;96779.34;5078922;28;20238;-71
2023/12/22 02:26:11;;;;;;;3.08;1.30;;;;;;;7.33;73.63;96786.81;5077605;28;20232;-70
2023/12/22 02:28:39;;;;;;;1.63;0.98;;;;;;;7.34;74.17;96788.47;5079518;28;20229;-70
2023/12/22 02:31:12;;;;;;;3.08;0.88;;;;;;;7.26;74.84;96786.00;5080810;28;20291;-70
2023/12/22 02:33:39;;;;;;;2.60;1.05;;;;;;;7.17;75.29;96795.34;5085692;28;20308;-70
2023/12/22 02:36:07;;;;;;;3.28;0.70;;;;;;;7.17;75.57;96795.34;5080181;28;20281;-70
2023/12/22 02:38:34;;;;;;;4.75;1.00;;;;;;;7.14;75.87;96794.97;5078769;28;20292;-71
2023/12/22 02:41:03;;;;;;;2.50;0.88;;;;;;;7.07;76.30;96786.91;5080184;28;20196;-71
2023/12/22 02:43:30;;;;;;;1.67;1.10;;;;;;;7.02;76.78;96800.16;5078594;28;20602;-71
2023/12/22 02:45:56;;;;;;;2.17;1.00;;;;;;;7.04;76.95;96776.56;5079054;28;20312;-71
2023/12/22 02:48:23;;;;;;;2.85;1.05;;;;;;;6.90;77.50;96759.63;5080084;28;20299;-71
2023/12/22 02:50:50;;;;;;;3.08;1.40;;;;;;;7.00;76.61;96757.31;5078300;28;20231;-70
2023/12/22 02:53:16;;;;;;;2.05;1.30;;;;;;;7.00;77.03;96781.53;5077641;28;20641;-70
2023/12/22 02:55:43;;;;;;;2.55;1.10;;;;;;;6.99;77.00;96768.28;5078058;28;20227;-71
2023/12/22 02:58:11;;;;;;;2.42;0.90;;;;;;;7.07;76.32;96762.69;5076897;28;20267;-72
2023/12/22 03:00:37;;;;;;;3.30;1.30;;;;;;;7.04;76.57;96763.09;5079043;28;20292;-70
2023/12/22 03:03:04;;;;;;;1.75;1.00;;;;;;;7.04;77.05;96760.41;5079374;28;20290;-70
2023/12/22 03:05:31;;;;;;;4.40;1.48;;;;;;;7.10;77.46;96780.28;5077807;28;20775;-71
2023/12/22 03:07:57;;;;;;;3.00;1.30;;;;;;;7.02;77.64;96768.69;5076728;28;20306;-70
2023/12/22 03:10:24;;;;;;;3.17;1.70;;;;;;;6.94;78.03;96751.94;5079513;28;20295;-70
2023/12/22 03:12:50;;;;;;;3.70;1.50;;;;;;;7.00;78.01;96737.66;5078662;28;20291;-71
2023/12/22 03:15:18;;;;;;;2.42;1.20;;;;;;;7.07;77.45;96750.06;5096509;28;20279;-70
2023/12/22 03:17:45;;;;;;;4.75;1.75;;;;;;;6.99;77.90;96746.78;5076722;28;20320;-71
2023/12/22 03:20:11;;;;;;;4.60;1.58;;;;;;;7.14;77.80;96762.66;5077844;28;20314;-70
2023/12/22 03:22:37;;;;;;;4.18;1.80;;;;;;;7.19;77.70;96757.47;5076371;28;20624;-70
2023/12/22 03:25:04;;;;;;;4.27;1.70;;;;;;;7.19;78.00;96763.66;5077729;28;20220;-70
2023/12/22 03:27:31;;;;;;;2.55;1.65;;;;;;;7.23;76.85;96743.38;5076094;28;20214;-70
2023/12/22 03:29:57;;;;;;;4.32;1.45;;;;;;;7.23;76.47;96748.75;5079070;28;20271;-71
2023/12/22 03:32:25;;;;;;;5.90;1.33;;;;;;;7.22;76.74;96765.94;5077008;28;20287;-71
2023/12/22 03:34:52;;;;;;;3.85;1.63;;;;;;;7.24;76.07;96766.53;5077707;28;20198;-71
2023/12/22 03:37:18;;;;;;;5.43;1.25;;;;;;;7.22;75.79;96770.50;5075438;28;20294;-71
2023/12/22 03:39:45;;;;;;;2.53;1.40;;;;;;;7.33;75.64;96789.50;5078140;28;20308;-70
2023/12/22 03:42:12;;;;;;;3.20;1.20;;;;;;;7.33;75.35;96781.44;5079240;28;20287;-70
2023/12/22 03:44:38;;;;;;;5.28;1.65;;;;;;;7.28;75.26;96783.94;5077298;28;20241;-70
2023/12/22 03:47:05;;;;;;;3.65;1.20;;;;;;;7.32;74.54;96801.31;5077821;28;20660;-70
2023/12/22 03:49:33;;;;;;;1.98;1.00;;;;;;;7.30;74.32;96783.72;5080027;28;20290;-71
2023/12/22 03:51:59;;;;;;;5.47;1.58;;;;;;;7.51;74.07;96796.88;5075826;28;20294;-76
2023/12/22 03:54:26;;;;;;;2.88;1.50;;;;;;;7.56;73.11;96788.16;5077134;28;20710;-72
2023/12/22 03:56:52;;;;;;;4.47;1.50;;;;;;;7.43;73.29;96780.97;5078454;28;20200;-71
2023/12/22 03:59:18;;;;;;;1.50;1.20;;;;;;;7.41;73.24;96789.28;5076832;28;20213;-71
2023/12/22 04:01:45;;;;;;;4.70;1.37;;;;;;;7.24;75.18;96809.59;5109382;28;20300;-71
2023/12/22 04:04:11;;;;;;;4.82;1.33;;;;;;;6.75;79.58;96810.13;5079545;28;21151;-71
2023/12/22 04:06:40;;;;;;;4.95;1.70;;;;;;;6.41;83.65;96829.97;5078023;28;20302;-71
2023/12/22 04:09:07;;;;;;;2.88;1.30;;;;;;;6.23;86.00;96835.13;5095081;28;20212;-71
2023/12/22 04:11:34;;;;;;;3.20;1.35;;;;;;;5.95;87.54;96814.63;5074400;28;20291;-71
2023/12/22 04:14:01;;;;;;;4.05;1.50;;;;;;;5.90;89.76;96810.88;5077499;28;20205;-71
2023/12/22 04:16:27;;;;;;;3.22;1.23;;;;;;;5.84;89.78;96804.47;5078454;28;20303;-71
2023/12/22 04:18:54;;;;;;;4.95;1.67;;;;;;;5.81;90.19;96786.06;5079054;28;20228;-70
2023/12/22 04:21:21;;;;;;;4.80;1.50;;;;;;;5.85;91.20;96803.41;5078670;28;20245;-70
2023/12/22 04:23:49;;;;;;;2.75;1.67;;;;;;;5.93;91.31;96800.56;5081606;28;20292;-71
2023/12/22 04:26:15;;;;;;;6.35;2.17;;;;;;;5.90;91.83;96795.59;5081239;28;20234;-71
2023/12/22 04:28:42;;;;;;;4.28;1.40;;;;;;;5.93;90.50;96792.50;5081704;28;20300;-71
2023/12/22 04:31:08;;;;;;;6.75;1.80;;;;;;;6.13;88.91;96789.03;5080855;28;20275;-71
2023/12/22 04:33:35;;;;;;;6.53;1.67;;;;;;;6.14;88.20;96764.66;5081343;28;20391;-71
2023/12/22 04:36:02;;;;;;;4.57;2.20;;;;;;;6.16;87.26;96786.78;5116122;27;20283;-71
2023/12/22 04:38:28;;;;;;;5.68;1.70;;;;;;;6.22;86.15;96791.31;5080941;28;20298;-71
2023/12/22 04:40:57;;;;;;;5.10;1.83;;;;;;;6.31;84.16;96795.44;5082788;28;20303;-71
2023/12/22 04:43:24;;;;;;;2.20;1.45;;;;;;;6.39;84.49;96813.25;5079015;28;20208;-71
2023/12/22 04:45:50;;;;;;;3.25;1.40;;;;;;;6.44;83.84;96818.00;5080678;28;20307;-71
2023/12/22 04:48:17;;;;;;;3.67;1.58;;;;;;;6.55;82.97;96830.78;5081868;28;20212;-71
2023/12/22 04:50:44;;;;;;;3.22;1.75;;;;;;;6.57;81.82;96823.34;5097720;27;20204;-71
2023/12/22 04:53:11;;;;;;;5.65;1.90;;;;;;;6.55;81.09;96809.28;5080859;28;20279;-71
2023/12/22 04:55:37;;;;;;;4.88;1.40;;;;;;;6.60;80.89;96829.16;5083248;28;20303;-71
2023/12/22 04:58:05;;;;;;;4.28;1.60;;;;;;;6.66;80.68;96841.75;5080679;28;20370;-71
2023/12/22 05:00:32;;;;;;;3.40;1.50;;;;;;;6.69;80.90;96833.28;5116143;27;20395;-70
2023/12/22 05:02:58;;;;;;;3.63;1.80;;;;;;;6.71;79.96;96835.78;5064963;28;20761;-71
2023/12/22 05:05:25;;;;;;;4.45;1.77;;;;;;;6.70;81.14;96839.50;5081268;28;20410;-71
2023/12/22 05:07:52;;;;;;;3.67;1.50;;;;;;;6.70;81.17;96842.19;5081569;28;20292;-71
2023/12/22 05:10:18;;;;;;;2.95;1.60;;;;;;;6.72;80.96;96854.38;5080033;28;20247;-71
2023/12/22 05:12:45;;;;;;;3.58;1.50;;;;;;;6.79;81.09;96865.16;5080970;28;21844;-71
2023/12/22 05:15:13;;;;;;;3.05;1.30;;;;;;;6.83;80.49;96868.22;5080942;28;20295;-71
2023/12/22 05:17:40;;;;;;;7.28;1.90;;;;;;;6.83;80.55;96860.16;5078422;28;20740;-72
2023/12/22 05:20:08;;;;;;;3.45;1.50;;;;;;;6.91;80.56;96868.00;5079952;28;20227;-71
2023/12/22 05:22:34;;;;;;;5.97;2.17;;;;;;;6.87;80.39;96861.38;5079445;28;20268;-72
2023/12/22 05:25:02;;;;;;;3.75;1.90;;;;;;;6.78;80.64;96868.03;5082195;28;20608;-71
2023/12/22 05:27:29;;;;;;;5.20;2.05;;;;;;;6.56;80.76;96838.66;5079929;28;20292;-72
2023/12/22 05:30:01;;;;;;;4.72;2.05;;;;;;;6.91;80.11;96868.00;5081135;28;20284;-72
2023/12/22 05:32:28;;;;;;;4.50;1.88;;;;;;;6.91;79.51;96858.09;5080129;28;20210;-72
2023/12/22 05:34:55;;;;;;;4.85;1.90;;;;;;;6.94;80.12;96864.91;5080075;28;20209;-72
2023/12/22 05:37:23;;;;;;;6.00;2.00;;;;;;;6.85;79.91;96842.78;5078749;28;20223;-71
2023/12/22 05:39:49;;;;;;;3.90;1.90;;;;;;;6.90;79.63;96850.22;5080456;28;20291;-71
2023/12/22 05:42:16;;;;;;;4.72;2.13;;;;;;;6.87;80.19;96874.84;5081305;28;20228;-71
2023/12/22 05:44:43;;;;;;;6.80;2.30;;;;;;;6.83;80.22;96855.59;5082541;28;20293;-71
2023/12/22 05:47:10;;;;;;;3.92;1.70;;;;;;;6.85;80.48;96868.84;5113054;27;20310;-71
2023/12/22 05:49:40;;;;;;;7.88;2.30;;;;;;;6.81;80.08;96865.75;5080087;28;20231;-71
2023/12/22 05:52:07;;;;;;;6.65;2.45;;;;;;;6.88;78.80;96836.16;5082303;28;20287;-71
2023/12/22 05:54:33;;;;;;;7.85;3.03;;;;;;;6.89;78.64;96853.94;5079190;28;20295;-71
2023/12/22 05:57:01;;;;;;;6.20;2.08;;;;;;;6.94;78.56;96864.91;5111990;27;20279;-71
2023/12/22 05:59:27;;;;;;;7.55;2.20;;;;;;;7.00;77.35;96877.53;5078384;28;20291;-71
2023/12/22 06:01:54;;;;;;;7.57;1.60;;;;;;;7.12;76.64;96883.94;5080646;28;20209;-72
2023/12/22 06:04:21;;;;;;;5.75;2.08;;;;;;;7.20;75.95;96875.63;5080874;28;20871;-72
2023/12/22 06:06:49;;;;;;;11.57;3.58;;;;;;;7.23;75.92;96861.75;5079392;28;20233;-71
2023/12/22 06:09:17;;;;;;;7.47;2.00;;;;;;;7.25;75.38;96896.53;5080625;28;20199;-71
2023/12/22 06:11:43;;;;;;;5.70;2.00;;;;;;;7.30;74.36;96904.81;5097049;28;20192;-71
2023/12/22 06:14:10;;;;;;;6.85;2.08;;;;;;;7.36;74.37;96893.22;5079121;28;20378;-71
2023/12/22 06:16:36;;;;;;;4.55;2.40;;;;;;;7.30;74.07;96899.44;5077987;28;20232;-71
2023/12/22 06:19:03;;;;;;;7.53;2.50;;;;;;;7.31;74.12;96909.16;5073390;28;20284;-71
2023/12/22 06:21:29;;;;;;;7.30;2.00;;;;;;;7.34;74.70;96923.03;5081011;28;20611;-71
2023/12/22 06:23:57;;;;;;;7.15;2.42;;;;;;;7.36;75.71;96920.97;5080743;28;20683;-71
2023/12/22 06:26:24;;;;;;;7.63;2.40;;;;;;;7.29;76.05;96913.91;5076434;28;20310;-71
2023/12/22 06:28:51;;;;;;;6.65;3.45;;;;;;;7.16;76.36;96935.44;5079569;28;20274;-71
2023/12/22 06:31:19;;;;;;;8.23;2.35;;;;;;;7.17;76.03;96943.31;5080275;28;20315;-71
2023/12/22 06:33:46;;;;;;;8.50;2.65;;;;;;;7.26;75.46;96942.06;5115063;27;20223;-71
2023/12/22 06:36:19;;;;;;;7.47;2.00;;;;;;;7.25;74.66;96945.81;5079751;28;20725;-71
2023/12/22 06:38:45;;;;;;;4.53;1.90;;;;;;;7.32;74.89;96951.19;5079729;28;20282;-71
2023/12/22 06:41:23;;;;;;;7.78;2.50;;;;;;;7.28;74.89;96934.63;5113293;27;20538;-70
2023/12/22 06:43:50;;;;;;;5.00;2.10;;;;;;;7.30;74.12;96954.09;5077730;28;20975;-71
2023/12/22 06:46:18;;;;;;;8.00;2.72;;;;;;;7.34;74.10;96954.50;5078364;28;20215;-71
2023/12/22 06:48:45;;;;;;;6.78;2.10;;;;;;;7.30;73.81;96948.69;5078978;28;20208;-71
2023/12/22 06:51:18;;;;;;;4.95;2.15;;;;;;;7.13;73.05;96920.56;5080161;28;20279;-71
2023/12/22 06:53:45;;;;;;;6.25;2.40;;;;;;;7.43;73.31;96952.41;5078058;28;20291;-71
2023/12/22 06:56:17;;;;;;;4.80;2.00;;;;;;;7.36;72.74;96955.94;5077946;28;20206;-71
2023/12/22 06:58:46;;;;;;;5.65;2.25;;;;;;;7.43;72.80;96973.97;5112659;27;20231;-70
2023/12/22 07:01:13;;;;;;;5.43;1.95;;;;;;;7.38;73.56;96971.88;5079120;28;20205;-72
2023/12/22 07:03:39;;;;;;;6.25;1.83;;;;;;;7.52;73.28;96984.28;5079126;28;20291;-73
2023/12/22 07:06:06;;;;;;;6.70;1.80;;;;;;;7.54;73.33;96998.34;5079196;28;20244;-73
2023/12/22 07:08:33;;;;;;;5.10;1.70;;;;;;;7.49;73.47;96992.78;5109135;27;20209;-74
2023/12/22 07:10:59;;;;;;;7.47;2.10;;;;;;;7.60;73.47;96991.31;5079287;28;20200;-73
2023/12/22 07:13:26;;;;;;;5.38;1.90;;;;;;;7.61;73.71;97011.81;5081305;28;20262;-73
2023/12/22 07:15:54;;;;;;;3.63;1.80;;;;;;;7.68;73.36;97024.25;5078172;28;20241;-72
2023/12/22 07:18:21;;;;;;;5.05;1.77;;;;;;;7.47;74.94;97023.66;5077196;28;20721;-71
2023/12/22 07:20:48;;;;;;;5.35;1.90;;;;;;;7.23;75.51;96996.31;5078505;28;20282;-71
2023/12/22 07:23:15;;;;;;;8.88;2.88;;;;;;;7.37;76.08;97027.56;5080370;28;20200;-71
2023/12/22 07:25:41;;;;;;;8.75;2.03;;;;;;;7.24;76.42;97008.72;5080008;28;20280;-72
2023/12/22 07:28:08;;;;;;;8.25;2.33;;;;;;;7.22;77.20;97040.38;5077848;28;20299;-72
2023/12/22 07:30:35;;;;;;;5.07;2.03;;;;;;;7.30;77.52;97040.19;5079005;28;20236;-72
2023/12/22 07:33:04;;;;;;;5.80;2.30;;;;;;;7.34;77.54;97041.44;5075739;28;20208;-73
2023/12/22 07:35:30;;;;;;;8.95;2.40;;;;;;;7.35;77.84;97026.97;5078207;28;20721;-71
2023/12/22 07:37:57;;;;;;;7.93;2.75;;;;;;;7.34;77.74;97019.91;5079662;28;20227;-77
2023/12/22 07:40:23;;;;;;;5.85;1.88;;;;;;;6.91;77.95;97003.31;5082557;28;20239;-78
2023/12/22 07:42:50;;;;;;;10.27;2.53;;;;;;;7.26;78.01;97035.44;5093729;28;20231;-77
2023/12/22 07:45:17;;;;;;;8.95;2.13;;;;;;;7.26;78.11;97021.97;5083659;28;20205;-76
2023/12/22 07:47:44;;;;;;;7.22;2.10;;;;;;;7.29;77.82;97025.09;5066316;28;20224;-77
2023/12/22 07:50:12;;;;;;;3.55;1.85;;;;;;;7.48;76.88;97030.66;5081626;28;20216;-75
2023/12/22 07:52:39;;;;;;;3.53;1.75;;;;;;;7.32;77.37;97043.50;5084327;28;20799;-71
2023/12/22 07:55:07;;;;;;;7.00;2.22;;;;;;;7.30;77.59;97040.19;5076279;28;20200;-71
2023/12/22 07:57:34;;;;;;;4.18;1.63;;;;;;;7.32;77.68;97038.13;5077504;28;20273;-70
2023/12/22 08:00:01;;;;;;;9.10;2.25;;;;;;;7.44;77.88;97045.59;5079639;28;20730;-71
2023/12/22 08:02:28;;;;;;;4.95;2.13;;;;;;;7.31;78.58;97035.66;5082207;28;20203;-71
2023/12/22 08:04:55;;;;;;;5.43;1.90;;;;;;;7.01;80.56;97035.19;5082434;28;20657;-71
2023/12/22 08:07:23;;;;;;;6.25;1.90;;;;;;;7.03;82.81;97055.50;5081465;28;20307;-72
2023/12/22 08:09:49;;;;;;;6.93;1.85;;;;;;;6.92;84.39;97042.63;5079265;28;20294;-72
2023/12/22 08:12:16;;;;;;;7.20;2.40;;;;;;;6.80;85.74;97055.03;5082551;28;20613;-72
2023/12/22 08:14:42;;;;;;;9.70;2.70;;;;;;;6.74;86.70;97056.66;5114228;27;20211;-72
2023/12/22 08:17:09;;;;;;;7.20;2.47;;;;;;;6.70;87.98;97065.31;5081112;28;20208;-72
2023/12/22 08:19:37;;;;;;;7.70;2.70;;;;;;;6.51;89.35;97055.31;5097619;27;20275;-72
2023/12/22 08:22:04;;;;;;;10.30;2.80;;;;;;;6.55;89.65;97046.66;5078694;28;20210;-71
2023/12/22 08:24:32;;;;;;;10.70;2.80;;;;;;;6.57;89.73;97063.41;5081503;28;20247;-71
2023/12/22 08:26:58;;;;;;;9.77;2.47;;;;;;;6.48;90.23;97053.06;5078909;28;20252;-71
2023/12/22 08:29:24;;;;;;;9.90;2.78;;;;;;;6.39;91.98;97036.28;5077112;28;20230;-71
2023/12/22 08:31:51;;;;;;;8.20;3.10;;;;;;;6.59;90.75;97061.34;5078051;28;20569;-72
2023/12/22 08:34:17;;;;;;;9.05;2.80;;;;;;;7.02;89.66;97047.63;5077858;28;20208;-72
2023/12/22 08:36:44;;;;;;;6.03;2.60;;;;;;;6.82;90.04;97042.22;5074778;28;20208;-72
2023/12/22 08:39:10;;;;;;;6.85;2.10;;;;;;;6.67;91.12;97047.75;5080237;28;20283;-72
2023/12/22 08:41:37;;;;;;;10.20;2.80;;;;;;;6.77;90.72;97039.28;5080549;28;20299;-72
2023/12/22 08:44:05;;;;;;;6.75;2.53;;;;;;;6.58;91.33;97040.03;5077927;28;20210;-71
2023/12/22 08:46:31;;;;;;;5.93;2.60;;;;;;;6.29;91.89;97003.56;5076309;28;20224;-71
2023/12/22 08:48:59;;;;;;;11.02;3.55;;;;;;;6.48;92.87;97032.38;5076652;28;20261;-70
2023/12/22 08:51:25;;;;;;;10.82;3.20;;;;;;;6.53;92.79;97026.38;5112617;27;20211;-71
2023/12/22 08:53:52;;;;;;;11.63;3.38;;;;;;;6.42;93.40;97027.81;5080135;28;20672;-71
2023/12/22 08:56:21;;;;;;;10.98;3.30;;;;;;;6.35;94.08;97027.78;5080529;28;20315;-71
2023/12/22 08:58:51;;;;;;;9.52;3.35;;;;;;;6.33;95.01;97034.38;5079957;28;20658;-71
2023/12/22 09:01:18;;;;;;;20.35;4.60;;;;;;;6.42;94.53;97030.50;5080004;28;20246;-71
2023/12/22 09:03:46;;;;;;;17.05;3.40;;;;;;;6.34;93.14;97027.97;5080679;28;20284;-71
2023/12/22 09:06:15;;;;;;;13.18;3.90;;;;;;;6.42;90.77;97035.03;5077697;28;20242;-71
2023/12/22 09:08:41;;;;;;;9.73;3.92;;;;;;;6.50;90.59;97040.25;5078677;28;20646;-71
2023/12/22 09:11:08;;;;;;;9.63;3.53;;;;;;;6.54;88.07;96996.63;5080008;28;20647;-71
2023/12/22 09:13:37;;;;;;;14.00;3.20;;;;;;;6.73;87.03;97049.63;5079198;28;20607;-71
2023/12/22 09:16:05;;;;;;;14.00;3.83;;;;;;;6.79;85.70;97044.47;5080904;28;20236;-71
2023/12/22 09:18:32;;;;;;;10.90;3.10;;;;;;;6.91;84.38;97050.91;5112414;27;20299;-69
2023/12/22 09:20:59;;;;;;;13.55;3.60;;;;;;;6.92;83.93;97033.72;5078406;28;20303;-71
2023/12/22 09:23:25;;;;;;;10.55;3.00;;;;;;;6.96;84.10;97046.56;5077116;28;20331;-70
2023/12/22 09:25:52;;;;;;;10.70;2.92;;;;;;;6.93;84.02;97027.31;5081218;28;20327;-70
2023/12/22 09:28:18;;;;;;;9.85;3.17;;;;;;;6.98;82.42;97046.38;5078066;28;20224;-72
2023/12/22 09:30:45;;;;;;;10.90;3.85;;;;;;;7.04;81.80;97054.47;5078853;28;20675;-70
2023/12/22 09:33:13;;;;;;;9.38;3.47;;;;;;;7.05;81.48;97057.97;5082528;28;20200;-71
2023/12/22 09:35:41;;;;;;;13.30;3.25;;;;;;;7.05;82.38;97066.03;5079833;28;20603;-69
2023/12/22 09:38:08;;;;;;;11.82;3.60;;;;;;;7.14;80.95;97072.91;5080141;28;20200;-69
2023/12/22 09:40:37;;;;;;;9.75;3.33;;;;;;;7.17;80.83;97058.19;5080288;28;20212;-69
2023/12/22 09:43:05;;;;;;;9.10;2.60;;;;;;;7.18;80.40;97079.50;5080105;28;20216;-69
2023/12/22 09:45:32;;;;;;;12.45;3.40;;;;;;;7.22;80.21;97080.75;5074655;28;20213;-69
2023/12/22 09:48:00;;;;;;;11.18;3.17;;;;;;;7.30;79.46;97069.81;5078188;28;20227;-69
2023/12/22 09:50:28;;;;;;;10.52;3.53;;;;;;;7.24;79.74;97062.53;5079702;28;20240;-69
2023/12/22 09:52:54;;;;;;;10.18;3.90;;;;;;;7.33;78.95;97066.69;5074470;28;20251;-70
2023/12/22 09:55:22;;;;;;;11.35;3.47;;;;;;;7.40;78.31;97066.72;5078633;28;20284;-70
2023/12/22 09:57:50;;;;;;;13.25;3.47;;;;;;;7.46;77.93;97071.28;5080277;28;20204;-70
2023/12/22 10:00:17;;;;;;;12.98;3.17;;;;;;;7.43;78.67;97070.84;5080133;28;20299;-70
2023/12/22 10:02:45;;;;;;;10.57;3.00;;;;;;;7.48;77.35;97068.34;5078862;28;20208;-70
2023/12/22 10:05:12;;;;;;;10.52;3.00;;;;;;;7.47;77.64;97083.72;5077783;28;20270;-70
2023/12/22 10:07:41;;;;;;;9.98;3.33;;;;;;;7.49;77.07;97075.38;5110400;27;20251;-69
2023/12/22 10:10:09;;;;;;;7.70;2.83;;;;;;;7.52;77.31;97059.66;5076740;28;20200;-68
2023/12/22 10:12:37;;;;;;;10.80;3.10;;;;;;;7.56;76.96;97049.31;5076700;28;20204;-69
2023/12/22 10:15:03;;;;;;;11.15;3.67;;;;;;;7.56;77.31;97043.91;5079587;28;20226;-69
2023/12/22 10:17:30;;;;;;;13.77;3.75;;;;;;;7.66;76.22;97045.16;5076084;28;20192;-69
2023/12/22 10:19:57;;;;;;;11.25;3.30;;;;;;;7.66;75.69;97053.25;5076520;28;20208;-69
2023/12/22 10:22:24;;;;;;;12.15;3.15;;;;;;;7.72;75.34;97016.59;5076294;28;20624;-69
2023/12/22 10:24:52;;;;;;;9.27;3.00;;;;;;;7.72;75.16;97020.09;5076505;28;20203;-69
2023/12/22 10:27:22;;;;;;;11.85;3.40;;;;;;;7.73;74.71;97024.44;5073520;28;20226;-69
2023/12/22 10:29:49;;;;;;;7.68;2.80;;;;;;;7.72;74.90;97016.59;5075896;28;20210;-69
2023/12/22 10:32:16;;;;;;;10.13;3.45;;;;;;;7.76;75.00;97023.22;5079241;28;20204;-69
2023/12/22 10:34:42;;;;;;;8.85;3.03;;;;;;;7.80;75.16;97024.41;5076383;28;20295;-70
2023/12/22 10:37:09;;;;;;;14.18;3.30;;;;;;;7.82;75.44;97025.03;5074083;28;20199;-69
2023/12/22 10:39:37;;;;;;;6.97;3.28;;;;;;;7.78;75.33;96999.59;5076568;28;21006;-70
2023/12/22 10:42:05;;;;;;;11.60;3.70;;;;;;;7.86;75.11;96999.34;5074304;28;20203;-69
2023/12/22 10:44:32;;;;;;;11.85;3.42;;;;;;;7.87;75.48;96989.41;5076887;28;20390;-69
2023/12/22 10:46:59;;;;;;;14.57;2.97;;;;;;;7.94;75.73;96988.34;5077712;28;20211;-70
2023/12/22 10:49:26;;;;;;;9.45;2.88;;;;;;;7.89;75.68;96963.91;5095071;28;20302;-69
2023/12/22 10:51:53;;;;;;;10.23;3.35;;;;;;;7.96;75.72;96969.28;5075760;28;20278;-70
2023/12/22 10:54:20;;;;;;;9.88;3.00;;;;;;;7.70;76.37;96937.88;5078271;28;20288;-69
2023/12/22 10:56:46;;;;;;;6.20;2.13;;;;;;;7.94;76.63;96956.03;5073851;28;20196;-69
2023/12/22 10:59:18;;;;;;;5.82;2.47;;;;;;;7.86;76.83;96958.94;5077573;28;20203;-69
2023/12/22 11:01:44;;;;;;;6.07;2.55;;;;;;;7.95;77.37;96978.41;5077994;28;20203;-70
2023/12/22 11:04:14;;;;;;;9.82;2.50;;;;;;;7.67;77.71;96960.66;5074265;28;20279;-69
2023/12/22 11:06:42;;;;;;;8.70;2.53;;;;;;;7.91;78.64;96978.00;5078614;28;20286;-69
2023/12/22 11:09:10;;;;;;;3.60;1.73;;;;;;;7.81;78.82;96969.50;5109304;27;20229;-71
2023/12/22 11:11:38;;;;;;;2.75;1.70;;;;;;;7.85;79.39;96970.75;5078135;28;20673;-70
2023/12/22 11:14:05;;;;;;;5.65;2.00;;;;;;;7.83;79.43;96956.66;5078911;28;20279;-70
2023/12/22 11:16:34;;;;;;;7.95;2.35;;;;;;;7.84;79.77;96976.34;5093015;28;20291;-70
2023/12/22 11:19:02;;;;;;;4.75;2.00;;;;;;;7.85;79.60;96942.97;5075221;28;20280;-70
2023/12/22 11:21:29;;;;;;;4.80;1.50;;;;;;;7.88;79.72;96959.56;5075608;28;20227;-69
2023/12/22 11:23:57;;;;;;;6.82;1.70;;;;;;;7.90;79.77;96943.19;5074355;28;20204;-70
2023/12/22 11:26:24;;;;;;;6.03;1.60;;;;;;;7.74;81.32;96958.78;5075684;28;20237;-70
2023/12/22 11:28:52;;;;;;;4.63;1.60;;;;;;;7.69;82.33;96949.69;5074480;28;20704;-70
2023/12/22 11:31:20;;;;;;;2.83;1.65;;;;;;;7.65;82.59;96953.81;5083209;28;20762;-70
2023/12/22 11:33:50;;;;;;;5.60;1.70;;;;;;;7.67;82.93;96933.72;5077064;28;20734;-70
2023/12/22 11:36:19;;;;;;;3.50;1.50;;;;;;;7.66;82.68;96931.25;5078775;28;20281;-70
2023/12/22 11:38:46;;;;;;;3.30;1.55;;;;;;;7.60;82.85;96921.31;5078662;28;20283;-70
2023/12/22 11:41:16;;;;;;;3.38;1.33;;;;;;;7.55;82.61;96923.81;5082613;28;20291;-69